メインページ
METAR-TAF:

METAR-TAF

空港 :

ポワンタピートル国際空港

ポワンタピートル, グアドループ

緯度: 16-16N, 経度: 061-31W, 海抜: 11m

現時点の気象観測

当レポートは28分前の19:00(UTC)に作成
東/北東の風 12kt
気温 29°C
湿度 74%
気圧 1013 hPa
視程10km以上
高度3200ftの曇り

METAR: TFFR 181900Z AUTO 07012KT 9999 RA OVC032 29/24 Q1013 TEMPO 4000 SHRA FEW013CB BKN018TCU

時間: 15:28 (19:28 UTC)

予報

当レポートは1時間21分前の18:07(UTC)に作成
予報は18日の 18時(UTC)から 19日の 18時(UTC)まで有効
の風 8kt
視程10km以上
高度2500ftの雲は散在している
高度4000ftの雲は散在している
18日の 18時(UTC)から 19日の 18時(UTC)まで一時的に
視程: 4000m
高度1300ftの雲はほとんどない, 積乱雲.
高度1800ftの千切れ雲あり, 塔状積雲.
にわか雨
確率 30% :
19日の 00時(UTC)から 19日の 12時(UTC)まで一時的に
変向風 15kt、最大25ktの突風を伴う
視程: 2000m
高度1000ftの千切れ雲あり, 積乱雲.
激しい雷雨, 雨

TAF: TFFR 181807Z 1818/1918 09008KT 9999 SCT025 SCT040 TEMPO 1818/1918 4000 SHRA FEW013CB BKN018TCU PROB30 TEMPO 1900/1912 VRB15G25KT 2000 TSRA BKN010CB

4,000以上の空港の気象観測と天気予報(METAR報とTAF報)

利用可能な観測所は地図上に黄色い丸と赤い丸で示す。

丸の上にカーソルを重ねると観測所名を参照できる。

次にクリックすると気象観測と天気予報を参照できる。

マップの切り替え:黒色「×」印の緑ボタンをクリックして拡大、「-」印の緑ボタンをクリックして縮小、緑色の三角印をクリックして隣りの地図に切り替え


METAR-TAF: